Data for 03/06/2008

Time Sea-Level Adjusted Pressure Absolute Pressure Temperature Relative Humidity Dew Point   
(mb) (inHg) (mb) (inHg) (C) (F) (%) (C) (F)
00:05 1021 30.15 850 25.1 -2.7 27.1 70 -7.4 18.6
00:10 1021 30.15 850 25.1 -3.3 26.1 72 -7.6 18.3
00:15 1021 30.15 850 25.1 -3.6 25.5 73 -7.8 18
00:20 1021 30.15 850 25.1 -3.6 25.5 74 -7.6 18.2
00:25 1021 30.15 850 25.1 -3.4 25.9 73 -7.5 18.5
00:30 1021 30.15 850 25.1 -3.1 26.4 73 -7.4 18.7
00:35 1021 30.15 850 25.1 -3 26.6 72 -7.3 18.9
00:40 1021 30.15 850 25.1 -3 26.7 72 -7.3 18.9
00:45 1021 30.15 850 25.1 -2.9 26.7 72 -7.3 18.9
00:50 1021 30.15 850 25.1 -3 26.6 73 -7.2 19
00:55 1021 30.15 850 25.1 -3 26.6 73 -7.2 19
01:00 1021 30.15 850 25.1 -3 26.6 73 -7.2 19
01:05 1021 30.15 850 25.1 -3.1 26.5 73 -7.2 19
01:10 1021 30.15 850 25.1 -3.1 26.4 73 -7.3 18.9
01:15 1021 30.15 850 25.1 -3.2 26.2 74 -7.2 19
01:20 1021 30.15 850 25.1 -3.4 26 74 -7.3 18.9
01:25 1021 30.15 850 25.1 -3.5 25.7 75 -7.3 18.8
01:30 1021 30.15 850 25.1 -3.5 25.6 75 -7.3 18.8
01:35 1021 30.15 850 25.1 -3.5 25.6 75 -7.3 18.9
01:40 1021 30.15 850 25.1 -3.6 25.6 76 -7.3 18.9
01:45 1021 30.15 850 25.1 -3.6 25.5 76 -7.2 19
01:50 1021 30.15 850 25.1 -3.7 25.4 77 -7.2 19
01:55 1021 30.15 850 25.1 -3.7 25.4 77 -7.2 19
02:00 1021 30.15 850 25.1 -3.6 25.5 77 -7.2 19.1
02:05 1021 30.15 850 25.1 -3.5 25.7 77 -7.1 19.3
02:10 1021 30.15 850 25.1 -3.5 25.7 77 -7.1 19.3
02:15 1021 30.15 850 25.1 -3.4 25.8 77 -7 19.4
02:20 1021 30.15 850 25.1 -3.4 25.9 76 -7 19.5
02:25 1021 30.15 850 25.1 -3.3 26.1 76 -7 19.4
02:30 1021 30.15 850 25.1 -3.2 26.2 75 -7.1 19.3
02:35 1021 30.15 850 25.1 -3.2 26.2 75 -7.1 19.3
02:40 1021 30.15 850 25.1 -3.3 26.1 75 -7.1 19.3
02:45 1021 30.15 850 25.1 -3.3 26.1 75 -7.2 19.1
02:50 1021 30.15 850 25.1 -3.3 26.1 74 -7.2 19
02:55 1021 30.15 850 25.1 -3.3 26 74 -7.3 18.9
03:00 1021 30.15 850 25.1 -3.3 26 74 -7.4 18.7
03:05 1021 30.15 850 25.1 -3.4 25.9 74 -7.4 18.7
03:10 1021 30.15 850 25.1 -3.4 25.8 74 -7.5 18.5
03:15 1021 30.15 850 25.1 -3.5 25.8 73 -7.6 18.4
03:20 1021 30.15 850 25.1 -3.5 25.7 73 -7.7 18.2
03:25 1021 30.15 850 25.1 -3.5 25.6 72 -7.8 17.9
03:30 1021 30.15 850 25.1 -3.6 25.5 72 -7.9 17.8
03:35 1021 30.15 850 25.1 -3.6 25.4 72 -8.1 17.5
03:40 1021 30.15 850 25.1 -3.7 25.3 72 -8.1 17.4
03:45 1021 30.15 850 25.1 -3.8 25.2 72 -8.2 17.3
03:50 1021 30.15 850 25.1 -3.8 25.1 72 -8.2 17.3
03:55 1021 30.15 850 25.1 -3.8 25.2 72 -8.2 17.3
04:00 1021 30.15 850 25.1 -3.8 25.2 72 -8.2 17.3
04:05 1021 30.15 850 25.1 -3.8 25.1 72 -8.2 17.2
04:10 1021 30.15 850 25.1 -3.8 25.2 72 -8.1 17.3
04:15 1021 30.15 850 25.1 -3.9 25 72 -8.2 17.3
04:20 1021 30.15 850 25.1 -3.9 25.1 72 -8.1 17.3
04:25 1021 30.15 850 25.1 -3.9 25 72 -8.2 17.3
04:30 1021 30.15 850 25.1 -3.8 25.1 72 -8.2 17.3
04:35 1021 30.15 850 25.1 -3.8 25.1 72 -8.2 17.3
04:40 1021 30.15 850 25.1 -3.8 25.1 72 -8.1 17.4
04:45 1021 30.15 851 25.13 -3.8 25.2 72 -8.1 17.4
04:50 1021 30.15 851 25.13 -3.8 25.1 72 -8.1 17.3
04:55 1021 30.15 851 25.13 -3.8 25.2 72 -8.1 17.4
05:00 1021 30.15 851 25.13 -3.8 25.1 72 -8.1 17.4
05:05 1021 30.15 851 25.13 -3.9 25.1 72 -8.2 17.3
05:10 1022 30.18 851 25.13 -4 24.9 72 -8.2 17.2
05:15 1022 30.18 851 25.13 -4 24.8 73 -8.2 17.3
05:20 1022 30.18 851 25.13 -4.1 24.6 73 -8.2 17.2
05:25 1022 30.18 851 25.13 -4.2 24.5 73 -8.3 17.1
05:30 1022 30.18 851 25.13 -4.3 24.3 74 -8.3 17
05:35 1022 30.18 851 25.13 -4.4 24.1 74 -8.4 16.9
05:40 1022 30.18 851 25.13 -4.5 23.9 74 -8.5 16.8
05:45 1022 30.18 851 25.13 -4.7 23.6 74 -8.6 16.6
05:50 1022 30.18 851 25.13 -4.9 23.1 75 -8.7 16.3
05:55 1022 30.18 851 25.13 -5.2 22.6 75 -8.9 16
06:00 1022 30.18 851 25.13 -5.3 22.4 76 -9 15.9
06:05 1022 30.18 851 25.13 -5.3 22.4 76 -8.8 16.1
06:10 1022 30.18 851 25.13 -5.3 22.4 78 -8.6 16.5
06:15 1022 30.18 851 25.13 -5.4 22.3 78 -8.7 16.3
06:20 1022 30.18 851 25.13 -5.6 21.9 78 -8.9 16.1
06:25 1022 30.18 851 25.13 -5.8 21.6 75 -9.5 14.9
06:30 1022 30.18 851 25.13 -5.9 21.4 74 -9.9 14.2
06:35 1022 30.18 851 25.13 -5.8 21.5 73 -10 14
06:40 1022 30.18 851 25.13 -5.6 21.9 72 -10 14
06:45 1022 30.18 851 25.13 -5.3 22.4 70 -10 14
06:50 1022 30.18 852 25.16 -5.2 22.6 70 -10 14.1
06:55 1022 30.18 852 25.16 -5.1 22.8 69 -10 14
07:00 1022 30.18 852 25.16 -5 23.1 68 -10.1 13.9
07:05 1022 30.18 852 25.16 -4.9 23.2 67 -10.1 13.8
07:10 1023 30.21 852 25.16 -4.8 23.3 67 -10.1 13.9
07:15 1023 30.21 852 25.16 -4.7 23.5 66 -10.1 13.8
07:20 1023 30.21 852 25.16 -4.8 23.4 66 -10.2 13.7
07:25 1023 30.21 852 25.16 -4.9 23.2 67 -10.1 13.8
07:30 1023 30.21 852 25.16 -5 23.1 67 -10.2 13.7
07:35 1023 30.21 852 25.16 -5 23 67 -10.1 13.7
07:40 1023 30.21 852 25.16 -5 23 68 -10.1 13.9
07:45 1023 30.21 852 25.16 -4.8 23.3 68 -9.9 14.1
07:50 1023 30.21 852 25.16 -4.6 23.7 67 -9.8 14.3
07:55 1023 30.21 852 25.16 -4.5 23.8 67 -9.8 14.4
08:00 1023 30.21 852 25.16 -4.5 24 67 -9.8 14.4
08:05 1023 30.21 852 25.16 -4.3 24.2 66 -9.7 14.5
08:10 1023 30.21 852 25.16 -4.2 24.4 65 -9.8 14.3
08:15 1023 30.21 852 25.16 -4.2 24.5 65 -9.9 14.2
08:20 1023 30.21 852 25.16 -4 24.8 64 -9.9 14.1
08:25 1023 30.21 852 25.16 -4 24.8 64 -9.8 14.4
08:30 1023 30.21 852 25.16 -4 24.8 64 -9.8 14.3
08:35 1023 30.21 852 25.16 -4.1 24.6 64 -10 13.9
08:40 1023 30.21 852 25.16 -4.1 24.7 63 -10 13.9
08:45 1023 30.21 852 25.16 -3.7 25.3 63 -9.8 14.4
08:50 1023 30.21 852 25.16 -3.4 25.9 62 -9.7 14.5
08:55 1023 30.21 852 25.16 -3.4 25.9 61 -9.8 14.4
09:00 1023 30.21 852 25.16 -3.4 25.8 62 -9.8 14.4
09:05 1023 30.21 852 25.16 -3.5 25.7 61 -9.9 14.2
09:10 1023 30.21 852 25.16 -3.6 25.4 62 -10 14
09:15 1023 30.21 852 25.16 -3.7 25.3 62 -9.9 14.2
09:20 1023 30.21 852 25.16 -3.5 25.6 62 -9.9 14.3
09:25 1023 30.21 852 25.16 -3.2 26.2 60 -9.8 14.3
09:30 1023 30.21 852 25.16 -3 26.6 59 -10 14.1
09:35 1023 30.21 852 25.16 -2.8 26.9 58 -9.9 14.1
09:40 1023 30.21 852 25.16 -2.8 26.9 57 -10.1 13.8
09:45 1023 30.21 852 25.16 -2.8 27 57 -10.1 13.7
09:50 1023 30.21 852 25.16 -2.3 27.9 56 -9.9 14.3
09:55 1023 30.21 852 25.16 -1.9 28.5 55 -9.9 14.2
10:00 1023 30.21 852 25.16 -2 28.5 54 -10.1 13.8
10:05 1023 30.21 852 25.16 -2.1 28.2 54 -10.1 13.8
10:10 1023 30.21 852 25.16 -1.9 28.5 54 -10 14.1
10:15 1023 30.21 852 25.16 -1.7 28.9 53 -10 14
10:20 1023 30.21 852 25.16 -1.7 28.9 53 -10.1 13.9
10:25 1023 30.21 852 25.16 -1.6 29.1 54 -9.9 14.2
10:30 1023 30.21 852 25.16 -1.2 29.9 53 -9.6 14.7
10:35 1023 30.21 852 25.16 -0.7 30.7 52 -9.4 15
10:40 1023 30.21 852 25.16 -0.8 30.6 51 -9.6 14.7
10:45 1023 30.21 852 25.16 -1 30.2 52 -9.6 14.7
10:50 1023 30.21 852 25.16 -0.7 30.7 51 -9.8 14.4
10:55 1023 30.21 852 25.16 -1.1 30 52 -9.7 14.5
11:00 1023 30.21 852 25.16 -0.7 30.7 50 -9.8 14.3
11:05 1023 30.21 852 25.16 -0.7 30.8 50 -9.8 14.4
11:10 1023 30.21 852 25.16 -0.8 30.6 50 -9.9 14.3
11:15 1023 30.21 852 25.16 -0.9 30.4 50 -9.9 14.1
11:20 1023 30.21 852 25.16 -0.1 31.8 49 -9.7 14.6
11:25 1023 30.21 852 25.16 0.7 33.3 47 -9.4 15
11:30 1023 30.21 852 25.16 1 33.7 46 -9.3 15.2
11:35 1023 30.21 852 25.16 0.9 33.6 45 -9.8 14.4
11:40 1023 30.21 852 25.16 0.4 32.8 46 -9.9 14.2
11:45 1023 30.21 852 25.16 0.1 32.1 48 -9.7 14.5
11:50 1023 30.21 852 25.16 0.4 32.7 47 -9.5 14.9
11:55 1023 30.21 852 25.16 0.3 32.5 48 -9.5 15
12:00 1023 30.21 852 25.16 2 35.6 44 -9 15.8
12:05 1023 30.21 852 25.16 2.2 36 43 -9 15.8
12:10 1023 30.21 852 25.16 1.1 34 46 -9.3 15.2
12:15 1023 30.21 852 25.16 1 33.8 46 -9.5 15
12:20 1023 30.21 852 25.16 0.8 33.4 46 -9.6 14.8
12:25 1023 30.21 852 25.16 0.5 32.9 49 -9.1 15.7
12:30 1023 30.21 852 25.16 1 33.8 47 -9 15.8
12:35 1023 30.21 852 25.16 1.7 35.1 45 -9 15.7
12:40 1023 30.21 852 25.16 0.7 33.2 47 -9.3 15.3
12:45 1023 30.21 852 25.16 0.3 32.5 49 -9.3 15.2
12:50 1023 30.21 852 25.16 0.4 32.7 48 -9.3 15.3
12:55 1023 30.21 852 25.16 0.6 33.1 50 -8.7 16.3
13:00 1023 30.21 852 25.16 1.4 34.5 47 -8.8 16.1
13:05 1023 30.21 852 25.16 1.7 35 47 -8.4 16.9
13:10 1023 30.21 852 25.16 2.1 35.8 46 -8.4 16.9
13:15 1023 30.21 852 25.16 1.3 34.3 48 -8.6 16.5
13:20 1023 30.21 852 25.16 0.8 33.4 49 -8.9 16
13:25 1023 30.21 852 25.16 0.9 33.7 50 -8.4 16.8
13:30 1022 30.18 852 25.16 1.4 34.5 49 -8.2 17.3
13:35 1022 30.18 852 25.16 1.8 35.3 47 -8.3 17.1
13:40 1022 30.18 852 25.16 2.2 36 45 -8.6 16.6
13:45 1022 30.18 852 25.16 2.3 36.2 45 -8.3 17.1
13:50 1022 30.18 852 25.16 2.3 36.2 45 -8.4 16.8
13:55 1022 30.18 851 25.13 2.6 36.6 44 -8.5 16.6
14:00 1022 30.18 851 25.13 2.2 35.9 45 -8.6 16.6
14:05 1022 30.18 851 25.13 2.1 35.9 46 -8.4 16.9
14:10 1022 30.18 851 25.13 2.8 37 45 -8.1 17.5
14:15 1022 30.18 851 25.13 3.5 38.3 41 -8.4 16.8
14:20 1022 30.18 851 25.13 3.7 38.7 41 -8.5 16.7
14:25 1022 30.18 851 25.13 3.6 38.5 41 -8.3 17.1
14:30 1022 30.18 851 25.13 3.4 38.1 42 -8.3 17
14:35 1022 30.18 851 25.13 3.5 38.2 41 -8.5 16.8
14:40 1022 30.18 851 25.13 3.5 38.3 42 -8.2 17.2
14:45 1022 30.18 851 25.13 4.2 39.6 40 -8.3 17.1
14:50 1022 30.18 851 25.13 4.1 39.3 41 -8.2 17.3
14:55 1022 30.18 851 25.13 4.5 40.2 37 -8.9 16
15:00 1022 30.18 851 25.13 3.9 39 39 -8.8 16.2
15:05 1022 30.18 851 25.13 4 39.2 40 -8.4 16.8
15:10 1022 30.18 851 25.13 4.7 40.5 38 -8.5 16.7
15:15 1022 30.18 851 25.13 4.5 40 38 -8.6 16.5
15:20 1022 30.18 851 25.13 4.2 39.5 39 -8.5 16.6
15:25 1022 30.18 851 25.13 3.6 38.5 41 -8.5 16.7
15:30 1022 30.18 851 25.13 3.7 38.7 39 -9.1 15.6
15:35 1022 30.18 851 25.13 3.6 38.6 40 -8.6 16.5
15:40 1022 30.18 851 25.13 3.8 38.9 40 -8.6 16.5
15:45 1022 30.18 851 25.13 4.1 39.4 39 -8.6 16.5
15:50 1022 30.18 851 25.13 3.9 39.1 40 -8.6 16.5
15:55 1022 30.18 851 25.13 4.6 40.3 38 -8.5 16.8
16:00 1022 30.18 851 25.13 4.5 40 38 -8.7 16.3
16:05 1022 30.18 851 25.13 4.4 39.9 38 -8.8 16.1
16:10 1022 30.18 851 25.13 4.1 39.4 39 -8.6 16.6
16:15 1022 30.18 851 25.13 4.7 40.5 38 -8.6 16.5
16:20 1022 30.18 851 25.13 4.8 40.6 36 -9 15.8
16:25 1022 30.18 851 25.13 4.6 40.4 36 -9 15.7
16:30 1022 30.18 851 25.13 4.7 40.5 36 -9.1 15.6
16:35 1022 30.18 851 25.13 4.1 39.4 38 -9 15.8
16:40 1022 30.18 851 25.13 4 39.2 39 -8.7 16.3
16:45 1022 30.18 851 25.13 4.5 40.1 38 -8.6 16.6
16:50 1022 30.18 851 25.13 4.7 40.4 37 -8.8 16.1
16:55 1022 30.18 851 25.13 4.7 40.4 38 -8.6 16.5
17:00 1022 30.18 851 25.13 4.4 39.8 38 -8.7 16.4
17:05 1022 30.18 851 25.13 4.3 39.8 39 -8.5 16.7
17:10 1022 30.18 851 25.13 4.7 40.5 38 -8.3 17.1
17:15 1022 30.18 851 25.13 4.7 40.4 39 -8.1 17.4
17:20 1022 30.18 851 25.13 4.8 40.7 38 -8.3 17.1
17:25 1022 30.18 851 25.13 4.6 40.4 39 -8.2 17.3
17:30 1022 30.18 851 25.13 4.3 39.8 40 -8.2 17.3
17:35 1022 30.18 851 25.13 4.5 40.1 39 -8.3 17
17:40 1022 30.18 851 25.13 4.3 39.7 40 -8.3 17.1
17:45 1022 30.18 851 25.13 4 39.1 40 -8.3 17
17:50 1022 30.18 851 25.13 3.8 38.8 41 -8.3 17
17:55 1022 30.18 851 25.13 3.4 38 42 -8.4 16.9
18:00 1022 30.18 851 25.13 3.1 37.6 42 -8.4 16.8
18:05 1022 30.18 851 25.13 2.9 37.3 43 -8.3 17.1
18:10 1022 30.18 851 25.13 2.9 37.2 44 -8.1 17.4
18:15 1022 30.18 851 25.13 2.8 37.1 45 -8 17.7
18:20 1022 30.18 851 25.13 2.8 37.1 45 -7.8 17.9
18:25 1022 30.18 851 25.13 3.1 37.5 45 -7.7 18.2
18:30 1022 30.18 851 25.13 3.2 37.8 45 -7.6 18.3
18:35 1022 30.18 851 25.13 3.3 37.9 45 -7.5 18.5
18:40 1022 30.18 851 25.13 3.3 37.9 45 -7.4 18.6
18:45 1022 30.18 851 25.13 3.1 37.6 46 -7.4 18.8
18:50 1022 30.18 851 25.13 3.1 37.5 46 -7.4 18.6
18:55 1022 30.18 851 25.13 3.1 37.5 46 -7.3 18.8
19:00 1022 30.18 852 25.16 3 37.5 47 -7.2 19
19:05 1022 30.18 852 25.16 3 37.3 48 -7.1 19.2
19:10 1022 30.18 852 25.16 2.9 37.2 48 -7 19.4
19:15 1022 30.18 852 25.16 2.8 37 49 -7 19.5
19:20 1023 30.21 852 25.16 2.8 37 49 -6.8 19.7
19:25 1023 30.21 852 25.16 2.7 36.8 50 -6.7 19.9
19:30 1023 30.21 852 25.16 2.6 36.6 50 -6.7 19.9
19:35 1023 30.21 852 25.16 2.4 36.3 52 -6.5 20.3
19:40 1023 30.21 852 25.16 2.2 36 52 -6.6 20.1
19:45 1023 30.21 852 25.16 2.1 35.8 53 -6.5 20.2
19:50 1023 30.21 852 25.16 1.8 35.2 54 -6.5 20.2
19:55 1023 30.21 852 25.16 1.4 34.6 55 -6.6 20.1
20:00 1023 30.21 852 25.16 1.2 34.2 56 -6.7 20
20:05 1023 30.21 852 25.16 1 33.8 57 -6.6 20.1
20:10 1023 30.21 852 25.16 0.9 33.6 57 -6.6 20
20:15 1023 30.21 852 25.16 0.9 33.6 57 -6.7 19.9
20:20 1023 30.21 852 25.16 0.8 33.5 57 -6.8 19.8
20:25 1023 30.21 852 25.16 0.9 33.7 57 -6.7 19.9
20:30 1023 30.21 852 25.16 0.7 33.3 57 -6.8 19.8
20:35 1023 30.21 852 25.16 0.7 33.2 58 -6.8 19.8
20:40 1023 30.21 852 25.16 0.5 32.9 58 -6.9 19.7
20:45 1023 30.21 852 25.16 0.5 32.8 58 -6.8 19.7
20:50 1023 30.21 852 25.16 0.3 32.6 58 -7 19.4
20:55 1023 30.21 852 25.16 0.3 32.5 58 -7 19.3
21:00 1023 30.21 852 25.16 0.4 32.7 58 -7 19.3
21:05 1023 30.21 852 25.16 0.6 33.1 57 -7 19.4
21:10 1023 30.21 852 25.16 0.6 33 57 -7 19.3
21:15 1023 30.21 852 25.16 0.7 33.2 56 -7.2 19
21:20 1023 30.21 852 25.16 0.7 33.2 55 -7.4 18.7
21:25 1023 30.21 852 25.16 0.3 32.5 56 -7.5 18.4
21:30 1023 30.21 852 25.16 0.1 32.3 56 -7.6 18.3
21:35 1023 30.21 852 25.16 0.2 32.3 56 -7.5 18.4
21:40 1023 30.21 852 25.16 0.4 32.8 55 -7.6 18.4
21:45 1023 30.21 852 25.16 0.7 33.2 54 -7.5 18.6
21:50 1023 30.21 852 25.16 0.8 33.4 54 -7.4 18.6
21:55 1023 30.21 852 25.16 0.6 33.2 54 -7.6 18.3
22:00 1023 30.21 852 25.16 0.2 32.3 56 -7.6 18.3
22:05 1023 30.21 852 25.16 0.1 32.1 56 -7.8 18
22:10 1023 30.21 852 25.16 0.1 32.1 56 -7.6 18.2
22:15 1023 30.21 852 25.16 -0.2 31.6 57 -7.7 18.2
22:20 1023 30.21 852 25.16 -0.1 31.7 57 -7.8 18
22:25 1023 30.21 852 25.16 -0.5 31.1 58 -7.8 18
22:30 1023 30.21 852 25.16 -0.7 30.7 59 -7.9 17.8
22:35 1023 30.21 852 25.16 -0.9 30.3 60 -7.7 18.1
22:40 1023 30.21 852 25.16 -0.8 30.5 60 -7.8 18
22:45 1023 30.21 852 25.16 -0.8 30.6 59 -7.8 17.9
22:50 1023 30.21 852 25.16 -1.2 29.9 60 -7.9 17.7
22:55 1023 30.21 852 25.16 -1.1 30 61 -7.8 17.9
23:00 1023 30.21 852 25.16 -1.3 29.7 61 -7.9 17.8
23:05 1023 30.21 852 25.16 -1.6 29.1 62 -8 17.7
23:10 1023 30.21 852 25.16 -1.8 28.8 64 -7.8 18
23:15 1023 30.21 852 25.16 -1.8 28.8 64 -7.7 18.2
23:20 1023 30.21 852 25.16 -1.9 28.6 65 -7.6 18.3
23:25 1023 30.21 852 25.16 -2 28.4 66 -7.6 18.3
23:30 1023 30.21 852 25.16 -1.9 28.5 66 -7.4 18.6
23:35 1023 30.21 852 25.16 -1.9 28.5 66 -7.4 18.6
23:40 1023 30.21 852 25.16 -2 28.5 66 -7.5 18.6
23:45 1023 30.21 852 25.16 -2.1 28.3 66 -7.5 18.5
23:50 1023 30.21 852 25.16 -2.2 28.1 67 -7.5 18.4
23:55 1023 30.21 852 25.16 -2.3 28 67 -7.5 18.4
24:00 1023 30.21 852 25.16 -2.3 27.9 67 -7.6 18.3